AFL235 UMKK-ULMM
Flight info
| Callsign | AFL235 |
|---|---|
| Flight time | N/A |
| Altitude | 37000 |
| Route | PELUG3N PELUG DCT OTVOV DCT KEDUX DCT PIVAX DCT NEKET/N0463F390 DCT PIRUX DCT PISIM DCT PIDIN DCT ARANS/K0861F390 DCT PISIS DCT AKARU DCT ROGOP T457 LULOR/K0869F380 T693 ASGOR ASGOR2L |
| Aircraft | A20N/M-SDE2E3FGHIRWXY/LB1 |
Departure
| Time | N/A |
|---|---|
| Airport | Khrabrovo Airport (UMKK) |
Arrival
| Time | 2026-04-26 19:03 |
|---|---|
| Airport | Emperor Nicholas II Murmansk Airport (ULMM) |
| Time | Latitude | Longitude | Altitude | Speed | Heading |
|---|---|---|---|---|---|
| 2026-04-26 18:30 | 65.74708 | 32.08208 | 37756 ft | 475 kts | 0° |
| 2026-04-26 18:30 | 65.78008 | 32.08363 | 37758 ft | 475 kts | 0° |
| 2026-04-26 18:31 | 65.84641 | 32.08680 | 37762 ft | 475 kts | 0° |
| 2026-04-26 18:31 | 65.91206 | 32.08998 | 37761 ft | 474 kts | 0° |
| 2026-04-26 18:32 | 65.97774 | 32.09323 | 37760 ft | 474 kts | 0° |
| 2026-04-26 18:32 | 66.04362 | 32.09644 | 37759 ft | 474 kts | 0° |
| 2026-04-26 18:33 | 66.07625 | 32.09802 | 37758 ft | 474 kts | 0° |
| 2026-04-26 18:34 | 66.19920 | 32.10400 | 37763 ft | 475 kts | 0° |
| 2026-04-26 18:34 | 66.30814 | 32.10933 | 37765 ft | 475 kts | 0° |
| 2026-04-26 18:35 | 66.37452 | 32.11620 | 37766 ft | 475 kts | 5° |
| 2026-04-26 18:35 | 66.43764 | 32.13821 | 37774 ft | 475 kts | 10° |
| 2026-04-26 18:36 | 66.50370 | 32.17609 | 37777 ft | 475 kts | 13° |
| 2026-04-26 18:36 | 66.56654 | 32.21527 | 37771 ft | 475 kts | 13° |
| 2026-04-26 18:37 | 66.63079 | 32.25522 | 37767 ft | 475 kts | 13° |
| 2026-04-26 18:37 | 66.69385 | 32.29440 | 37760 ft | 476 kts | 13° |
| 2026-04-26 18:38 | 66.75809 | 32.33449 | 37756 ft | 476 kts | 13° |
| 2026-04-26 18:38 | 66.82227 | 32.37471 | 37701 ft | 476 kts | 13° |
| 2026-04-26 18:39 | 66.85386 | 32.39460 | 37396 ft | 466 kts | 13° |
| 2026-04-26 18:39 | 66.88495 | 32.41425 | 37002 ft | 460 kts | 13° |
| 2026-04-26 18:39 | 66.91589 | 32.43382 | 36489 ft | 459 kts | 13° |
| 2026-04-26 18:39 | 66.94692 | 32.45350 | 35853 ft | 460 kts | 13° |
| 2026-04-26 18:40 | 66.97796 | 32.47320 | 35154 ft | 463 kts | 13° |
| 2026-04-26 18:40 | 67.00872 | 32.49278 | 34449 ft | 465 kts | 13° |
| 2026-04-26 18:40 | 67.04036 | 32.51299 | 33710 ft | 467 kts | 12° |
| 2026-04-26 18:40 | 67.07182 | 32.53314 | 32985 ft | 469 kts | 12° |
| 2026-04-26 18:41 | 67.10309 | 32.55322 | 32391 ft | 471 kts | 12° |
| 2026-04-26 18:41 | 67.13473 | 32.57361 | 31826 ft | 471 kts | 12° |
| 2026-04-26 18:41 | 67.16613 | 32.59389 | 31334 ft | 468 kts | 12° |
| 2026-04-26 18:41 | 67.19746 | 32.61417 | 30879 ft | 464 kts | 12° |
| 2026-04-26 18:42 | 67.22876 | 32.63449 | 30392 ft | 462 kts | 12° |
| 2026-04-26 18:42 | 67.25965 | 32.65460 | 29752 ft | 461 kts | 13° |
| 2026-04-26 18:42 | 67.28897 | 32.67371 | 29083 ft | 462 kts | 13° |
| 2026-04-26 18:42 | 67.31998 | 32.69401 | 28431 ft | 459 kts | 13° |
| 2026-04-26 18:43 | 67.35091 | 32.71432 | 27823 ft | 455 kts | 13° |
| 2026-04-26 18:43 | 67.38152 | 32.73448 | 27202 ft | 451 kts | 13° |
| 2026-04-26 18:43 | 67.41153 | 32.75428 | 26615 ft | 446 kts | 13° |
| 2026-04-26 18:43 | 67.44175 | 32.77116 | 26058 ft | 440 kts | 8° |
| 2026-04-26 18:44 | 67.47113 | 32.78017 | 25499 ft | 434 kts | 2° |
| 2026-04-26 18:44 | 67.50073 | 32.78236 | 24877 ft | 428 kts | 359° |
| 2026-04-26 18:44 | 67.53026 | 32.78160 | 24225 ft | 424 kts | 358° |
| 2026-04-26 18:44 | 67.55945 | 32.78020 | 23608 ft | 419 kts | 358° |
| 2026-04-26 18:45 | 67.58803 | 32.77877 | 22995 ft | 413 kts | 358° |
| 2026-04-26 18:45 | 67.61555 | 32.77750 | 22376 ft | 409 kts | 358° |
| 2026-04-26 18:45 | 67.64356 | 32.77630 | 21751 ft | 405 kts | 358° |
| 2026-04-26 18:45 | 67.66946 | 32.77525 | 21141 ft | 394 kts | 358° |
| 2026-04-26 18:46 | 67.69755 | 32.77416 | 20123 ft | 389 kts | 358° |
| 2026-04-26 18:46 | 67.72443 | 32.77308 | 19579 ft | 382 kts | 358° |
| 2026-04-26 18:46 | 67.75071 | 32.77204 | 19065 ft | 377 kts | 358° |
| 2026-04-26 18:46 | 67.77671 | 32.77101 | 18551 ft | 372 kts | 358° |
| 2026-04-26 18:47 | 67.80204 | 32.77002 | 18058 ft | 367 kts | 358° |
| 2026-04-26 18:47 | 67.82756 | 32.76901 | 17571 ft | 362 kts | 358° |
| 2026-04-26 18:47 | 67.85239 | 32.76802 | 17082 ft | 358 kts | 358° |
| 2026-04-26 18:47 | 67.87715 | 32.76705 | 16590 ft | 355 kts | 358° |
| 2026-04-26 18:48 | 67.90170 | 32.76608 | 16111 ft | 351 kts | 358° |
| 2026-04-26 18:48 | 67.92591 | 32.76512 | 15627 ft | 345 kts | 358° |
| 2026-04-26 18:48 | 67.94972 | 32.76416 | 15140 ft | 342 kts | 358° |
| 2026-04-26 18:48 | 67.97280 | 32.76324 | 14666 ft | 338 kts | 358° |
| 2026-04-26 18:49 | 67.99683 | 32.76246 | 14172 ft | 333 kts | 358° |
| 2026-04-26 18:49 | 68.01970 | 32.76219 | 13677 ft | 329 kts | 358° |
| 2026-04-26 18:49 | 68.04230 | 32.76198 | 13204 ft | 325 kts | 358° |
| 2026-04-26 18:49 | 68.06477 | 32.76167 | 12730 ft | 321 kts | 358° |
| 2026-04-26 18:50 | 68.08672 | 32.76133 | 12272 ft | 316 kts | 358° |
| 2026-04-26 18:50 | 68.10864 | 32.76098 | 11813 ft | 314 kts | 358° |
| 2026-04-26 18:50 | 68.13025 | 32.76060 | 11362 ft | 311 kts | 358° |
| 2026-04-26 18:50 | 68.15157 | 32.76018 | 10914 ft | 307 kts | 358° |
| 2026-04-26 18:51 | 68.17236 | 32.75980 | 10484 ft | 301 kts | 358° |
| 2026-04-26 18:51 | 68.19278 | 32.75948 | 10319 ft | 285 kts | 358° |
| 2026-04-26 18:51 | 68.20997 | 32.75927 | 10215 ft | 270 kts | 358° |
| 2026-04-26 18:51 | 68.22902 | 32.75901 | 10069 ft | 255 kts | 358° |
| 2026-04-26 18:52 | 68.24634 | 32.75874 | 9946 ft | 250 kts | 358° |
| 2026-04-26 18:52 | 68.26360 | 32.75845 | 9831 ft | 248 kts | 358° |
| 2026-04-26 18:52 | 68.28080 | 32.75814 | 9667 ft | 247 kts | 358° |
| 2026-04-26 18:52 | 68.29752 | 32.75786 | 9320 ft | 244 kts | 358° |
| 2026-04-26 18:53 | 68.31435 | 32.75772 | 9003 ft | 242 kts | 358° |
| 2026-04-26 18:53 | 68.33099 | 32.75747 | 8702 ft | 239 kts | 358° |
| 2026-04-26 18:53 | 68.34751 | 32.75708 | 8397 ft | 237 kts | 358° |
| 2026-04-26 18:53 | 68.36399 | 32.75684 | 8096 ft | 236 kts | 358° |
| 2026-04-26 18:54 | 68.38021 | 32.75666 | 7801 ft | 234 kts | 358° |
| 2026-04-26 18:54 | 68.39629 | 32.75634 | 7507 ft | 233 kts | 359° |
| 2026-04-26 18:54 | 68.41250 | 32.75610 | 7209 ft | 232 kts | 359° |
| 2026-04-26 18:54 | 68.42860 | 32.75660 | 6904 ft | 232 kts | 1° |
| 2026-04-26 18:55 | 68.44469 | 32.75838 | 6606 ft | 232 kts | 1° |
| 2026-04-26 18:55 | 68.46075 | 32.75996 | 6315 ft | 231 kts | 0° |
| 2026-04-26 18:55 | 68.47673 | 32.76192 | 6035 ft | 229 kts | 1° |
| 2026-04-26 18:55 | 68.49229 | 32.76844 | 5671 ft | 232 kts | 22° |
| 2026-04-26 18:56 | 68.50632 | 32.79017 | 5259 ft | 235 kts | 29° |
| 2026-04-26 18:56 | 68.51982 | 32.81416 | 4805 ft | 238 kts | 28° |
| 2026-04-26 18:56 | 68.53402 | 32.83883 | 4320 ft | 241 kts | 27° |
| 2026-04-26 18:56 | 68.54802 | 32.86208 | 3887 ft | 243 kts | 27° |
| 2026-04-26 18:57 | 68.56260 | 32.88569 | 3521 ft | 242 kts | 28° |
| 2026-04-26 18:57 | 68.57216 | 32.90128 | 3293 ft | 240 kts | 27° |
| 2026-04-26 18:57 | 68.59097 | 32.93184 | 2877 ft | 234 kts | 28° |
| 2026-04-26 18:57 | 68.60456 | 32.95403 | 2593 ft | 228 kts | 27° |
| 2026-04-26 18:58 | 68.61778 | 32.97548 | 2546 ft | 212 kts | 27° |
| 2026-04-26 18:58 | 68.63014 | 32.99436 | 2526 ft | 194 kts | 15° |
| 2026-04-26 18:58 | 68.64217 | 32.99609 | 2525 ft | 179 kts | 345° |
| 2026-04-26 18:58 | 68.65320 | 32.98428 | 2618 ft | 172 kts | 333° |
| 2026-04-26 18:59 | 68.66332 | 32.96872 | 2696 ft | 167 kts | 330° |
| 2026-04-26 18:59 | 68.67252 | 32.95324 | 2681 ft | 159 kts | 328° |
| 2026-04-26 18:59 | 68.68143 | 32.93724 | 2520 ft | 157 kts | 328° |
| 2026-04-26 18:59 | 68.69014 | 32.92120 | 2315 ft | 156 kts | 327° |
| 2026-04-26 19:00 | 68.69917 | 32.90445 | 2091 ft | 156 kts | 327° |
| 2026-04-26 19:00 | 68.70766 | 32.88857 | 1862 ft | 143 kts | 327° |
| 2026-04-26 19:00 | 68.71542 | 32.87410 | 1648 ft | 129 kts | 327° |
| 2026-04-26 19:00 | 68.72257 | 32.86084 | 1492 ft | 128 kts | 326° |
| 2026-04-26 19:01 | 68.72990 | 32.84728 | 1322 ft | 128 kts | 326° |
| 2026-04-26 19:01 | 68.73731 | 32.83356 | 1151 ft | 128 kts | 326° |
| 2026-04-26 19:01 | 68.74468 | 32.81995 | 977 ft | 127 kts | 326° |
| 2026-04-26 19:01 | 68.75142 | 32.80746 | 814 ft | 127 kts | 326° |
| 2026-04-26 19:02 | 68.75869 | 32.79400 | 635 ft | 126 kts | 325° |
| 2026-04-26 19:02 | 68.76586 | 32.78078 | 451 ft | 126 kts | 325° |
| 2026-04-26 19:02 | 68.77291 | 32.76791 | 283 ft | 125 kts | 325° |
| 2026-04-26 19:02 | 68.77711 | 32.76000 | 257 ft | 87 kts | 327° |
| 2026-04-26 19:03 | 68.78042 | 32.75381 | 263 ft | 30 kts | 328° |
| 2026-04-26 19:03 | 68.78215 | 32.75057 | 264 ft | 29 kts | 324° |
| 2026-04-26 19:03 | 68.78300 | 32.74984 | 263 ft | 3 kts | 8° |
| 2026-04-26 19:03 | 68.78320 | 32.75021 | 262 ft | 5 kts | 51° |
| 2026-04-26 19:04 | 68.78342 | 32.75130 | 260 ft | 10 kts | 62° |
| 2026-04-26 19:04 | 68.78355 | 32.75201 | 257 ft | 0 kts | 62° |
| 2026-04-26 19:04 | 68.78355 | 32.75204 | 257 ft | 1 kts | 62° |
| 2026-04-26 19:05 | 68.78395 | 32.75389 | 254 ft | 9 kts | 55° |
| 2026-04-26 19:05 | 68.78420 | 32.75492 | 252 ft | 7 kts | 57° |
| 2026-04-26 19:05 | 68.78445 | 32.75599 | 250 ft | 7 kts | 64° |
| 2026-04-26 19:06 | 68.78444 | 32.75705 | 249 ft | 5 kts | 119° |
| 2026-04-26 19:06 | 68.78424 | 32.75758 | 249 ft | 2 kts | 148° |
| 2026-04-26 19:06 | 68.78423 | 32.75761 | 249 ft | 0 kts | 146° |